Time;durP1;ratioP1;P1;durP2;ratioP2;P2;SDS_P1;SDS_P2;PMS_P1;PMS_P2;Temp;Humidity;BMP_temperature;BMP_pressure;BME280_temperature;BME280_humidity;BME280_pressure;Samples;Min_cycle;Max_cycle;Signal;HPM_P1;HPM_P2
2024/01/13 00:04:50;;;;;;;3.13;2.03;;;;;;;9.48;62.87;100749.88;10370771;28;97204;-79
2024/01/13 00:09:53;;;;;;;3.13;2.05;;;;;;;9.51;62.05;100768.19;10370454;28;97329;-79
2024/01/13 00:14:58;;;;;;;3.63;2.35;;;;;;;9.47;62.41;100764.78;10370499;28;97001;-79
2024/01/13 00:20:03;;;;;;;3.20;1.90;;;;;;;9.49;62.24;100743.72;10369719;28;97264;-79
2024/01/13 00:25:07;;;;;;;2.50;1.97;;;;;;;9.47;62.63;100741.13;10369746;28;97944;-80
2024/01/13 00:30:12;;;;;;;4.47;2.22;;;;;;;9.50;61.91;100727.91;10368912;28;96616;-80
2024/01/13 00:35:16;;;;;;;4.35;2.25;;;;;;;9.51;62.72;100740.16;10370233;28;96793;-80
2024/01/13 00:40:20;;;;;;;2.70;1.60;;;;;;;9.50;62.30;100732.31;10375850;28;96666;-80
2024/01/13 00:45:24;;;;;;;2.55;1.73;;;;;;;9.51;62.59;100745.41;10377246;28;97105;-79
2024/01/13 00:50:28;;;;;;;3.65;1.90;;;;;;;9.57;62.08;100739.13;10377127;28;97026;-80
2024/01/13 00:55:32;;;;;;;3.67;1.95;;;;;;;9.55;62.34;100754.06;10376760;28;97156;-79
2024/01/13 01:00:37;;;;;;;2.97;1.98;;;;;;;9.58;62.15;100748.72;10375914;28;97331;-79
2024/01/13 01:05:40;;;;;;;3.97;1.92;;;;;;;9.58;61.93;100768.00;10376888;28;97117;-80
2024/01/13 01:10:44;;;;;;;3.95;1.80;;;;;;;9.66;61.95;100766.00;10375962;28;96727;-80
2024/01/13 01:15:49;;;;;;;3.25;2.00;;;;;;;9.63;62.52;100758.22;10375831;28;97298;-79
2024/01/13 01:20:52;;;;;;;2.90;1.80;;;;;;;9.61;62.21;100751.25;10374988;28;97006;-79
2024/01/13 01:25:56;;;;;;;3.45;2.03;;;;;;;9.59;62.01;100738.16;10375537;28;96674;-80
2024/01/13 01:31:01;;;;;;;2.85;1.98;;;;;;;9.53;62.39;100721.72;10375650;28;97270;-80
2024/01/13 01:36:06;;;;;;;3.40;2.17;;;;;;;9.52;62.95;100704.25;10374770;28;96709;-79
2024/01/13 01:41:10;;;;;;;4.37;2.40;;;;;;;9.48;62.61;100719.25;10375063;28;96768;-79
2024/01/13 01:46:17;;;;;;;3.30;1.88;;;;;;;9.55;62.26;100702.41;10374510;28;96877;-80
2024/01/13 01:51:22;;;;;;;2.38;1.48;;;;;;;9.56;62.81;100692.72;10373730;28;96760;-79
2024/01/13 01:56:29;;;;;;;3.08;1.70;;;;;;;9.56;62.86;100719.88;10375979;28;96993;-79
2024/01/13 02:01:34;;;;;;;3.97;2.10;;;;;;;9.57;62.46;100753.13;10374447;28;97297;-80
2024/01/13 02:06:37;;;;;;;2.90;1.80;;;;;;;9.61;61.90;100756.53;10374209;28;96712;-80
2024/01/13 02:11:41;;;;;;;3.33;1.90;;;;;;;9.56;62.00;100743.53;10373010;28;96808;-80
2024/01/13 02:16:46;;;;;;;4.05;1.77;;;;;;;9.54;63.01;100740.06;10373550;28;97101;-79
2024/01/13 02:21:51;;;;;;;3.50;2.03;;;;;;;9.50;62.96;100713.94;10373643;28;97123;-79
2024/01/13 02:26:54;;;;;;;3.63;2.00;;;;;;;9.55;62.42;100693.66;10373597;28;96596;-79
2024/01/13 02:31:57;;;;;;;3.38;1.70;;;;;;;9.59;62.78;100732.91;10372923;28;96737;-80
2024/01/13 02:37:03;;;;;;;1.77;1.55;;;;;;;9.64;62.25;100745.94;10372094;28;96617;-80
2024/01/13 02:42:08;;;;;;;2.63;1.75;;;;;;;9.54;62.22;100726.94;10372817;28;96673;-80
2024/01/13 02:47:11;;;;;;;2.20;1.45;;;;;;;9.59;62.28;100753.09;10373027;28;96928;-80
2024/01/13 02:52:16;;;;;;;2.80;1.80;;;;;;;9.69;62.65;100754.56;10373128;28;96719;-80
2024/01/13 02:57:20;;;;;;;4.93;2.25;;;;;;;9.62;62.39;100738.09;10372609;28;97143;-80
2024/01/13 03:02:23;;;;;;;3.47;1.92;;;;;;;9.65;62.45;100730.13;10371962;28;96913;-80
2024/01/13 03:07:29;;;;;;;3.30;1.90;;;;;;;9.63;62.28;100739.81;10372017;28;97394;-80
2024/01/13 03:12:33;;;;;;;3.92;1.85;;;;;;;9.69;62.34;100747.50;10372516;28;97237;-79
2024/01/13 03:17:36;;;;;;;2.38;1.77;;;;;;;9.69;62.69;100723.88;10371519;28;97346;-80
2024/01/13 03:22:41;;;;;;;3.42;1.70;;;;;;;9.73;61.96;100717.63;10372348;28;97130;-79
2024/01/13 03:27:45;;;;;;;3.65;1.98;;;;;;;9.73;62.22;100717.63;10371693;28;96735;-80
2024/01/13 03:32:48;;;;;;;3.58;2.08;;;;;;;9.64;62.67;100699.50;10372071;28;96895;-80
2024/01/13 03:37:54;;;;;;;3.28;2.25;;;;;;;9.66;62.29;100712.56;10372538;28;97287;-80
2024/01/13 03:42:58;;;;;;;3.28;1.90;;;;;;;9.64;62.10;100717.03;10370882;28;97010;-80
2024/01/13 03:48:01;;;;;;;2.05;1.52;;;;;;;9.62;62.95;100726.72;10370844;28;96716;-80
2024/01/13 03:53:06;;;;;;;4.30;1.73;;;;;;;9.70;62.00;100714.22;10369896;28;96781;-80
2024/01/13 03:58:09;;;;;;;3.85;1.92;;;;;;;9.65;62.12;100713.50;10370983;28;96803;-80
2024/01/13 04:03:13;;;;;;;2.92;1.67;;;;;;;9.65;62.78;100706.50;10370921;28;97215;-79
2024/01/13 04:08:20;;;;;;;4.55;1.90;;;;;;;9.60;62.85;100692.63;10370039;28;96698;-80
2024/01/13 04:13:24;;;;;;;3.25;2.30;;;;;;;9.56;63.43;100682.22;10374226;28;96659;-80
2024/01/13 04:18:27;;;;;;;2.42;1.58;;;;;;;9.60;63.02;100661.09;10377275;28;97297;-80
2024/01/13 04:23:33;;;;;;;4.22;1.73;;;;;;;9.58;63.00;100665.53;10377617;28;96696;-80
2024/01/13 04:28:36;;;;;;;4.20;1.92;;;;;;;9.56;62.77;100658.59;10377925;28;96738;-80
2024/01/13 04:33:40;;;;;;;3.08;1.60;;;;;;;9.61;63.18;100668.06;10377498;28;97011;-80
2024/01/13 04:38:48;;;;;;;2.35;1.33;;;;;;;9.64;63.11;100677.63;10377043;28;96861;-79
2024/01/13 04:43:51;;;;;;;3.80;2.00;;;;;;;9.72;63.16;100675.63;10375845;28;96836;-80
2024/01/13 04:48:54;;;;;;;3.00;1.63;;;;;;;9.67;62.60;100656.50;10376729;28;97620;-79
2024/01/13 04:53:59;;;;;;;3.47;1.75;;;;;;;9.66;62.80;100676.66;10376311;28;97394;-80
2024/01/13 04:59:03;;;;;;;2.42;1.63;;;;;;;9.65;62.53;100687.22;10376618;28;97246;-80
2024/01/13 05:04:07;;;;;;;3.20;2.10;;;;;;;9.65;63.37;100695.97;10376138;28;97619;-80
2024/01/13 05:09:12;;;;;;;2.25;1.55;;;;;;;9.69;63.28;100683.63;10375943;28;96703;-80
2024/01/13 05:14:16;;;;;;;3.03;1.85;;;;;;;9.62;63.12;100666.31;10375363;28;97195;-80
2024/01/13 05:19:20;;;;;;;2.47;1.52;;;;;;;9.63;62.94;100645.22;10376540;28;97062;-79
2024/01/13 05:24:25;;;;;;;2.30;1.33;;;;;;;9.62;63.12;100671.56;10374712;28;97053;-80
2024/01/13 05:29:29;;;;;;;3.13;1.88;;;;;;;9.59;63.75;100687.41;10375221;28;96748;-80
2024/01/13 05:34:33;;;;;;;2.78;1.70;;;;;;;9.69;63.27;100694.97;10374646;28;96731;-79
2024/01/13 05:39:38;;;;;;;2.28;1.70;;;;;;;9.73;62.80;100701.00;10375016;28;96714;-79
2024/01/13 05:44:42;;;;;;;2.47;1.75;;;;;;;9.72;63.71;100720.31;10374489;28;97404;-80
2024/01/13 05:49:45;;;;;;;3.00;1.67;;;;;;;9.71;62.79;100763.25;10374679;28;96657;-79
2024/01/13 05:54:50;;;;;;;2.53;1.60;;;;;;;9.75;62.42;100752.63;10374979;28;97216;-79
2024/01/13 05:59:54;;;;;;;3.47;1.65;;;;;;;9.74;62.55;100731.63;10374773;28;97358;-79
2024/01/13 06:04:57;;;;;;;2.38;1.67;;;;;;;9.83;62.30;100728.75;10374645;28;96941;-80
2024/01/13 06:10:03;;;;;;;3.75;1.83;;;;;;;9.81;62.92;100741.06;10375211;28;96607;-80
2024/01/13 06:15:08;;;;;;;3.58;1.77;;;;;;;9.77;62.79;100726.28;10373131;28;96984;-79
2024/01/13 06:20:12;;;;;;;3.03;1.73;;;;;;;9.77;63.42;100756.06;10373969;28;96685;-80
2024/01/13 06:25:17;;;;;;;4.90;1.80;;;;;;;9.79;62.21;100756.88;10372509;28;97390;-80
2024/01/13 06:30:21;;;;;;;2.55;1.65;;;;;;;9.91;62.33;100729.38;10373585;28;96693;-79
2024/01/13 06:35:25;;;;;;;2.67;1.30;;;;;;;9.98;62.11;100729.16;10373070;28;97174;-80
2024/01/13 06:40:30;;;;;;;2.90;1.80;;;;;;;9.92;61.99;100749.50;10372651;28;96791;-80
2024/01/13 06:45:33;;;;;;;3.85;1.75;;;;;;;9.84;62.55;100760.25;10373195;28;97335;-80
2024/01/13 06:50:37;;;;;;;3.63;1.83;;;;;;;9.81;64.18;100725.31;10372811;28;96661;-80
2024/01/13 06:55:54;;;;;;;5.50;2.67;;;;;;;9.86;63.90;100754.94;10373211;28;96985;-80
2024/01/13 07:00:58;;;;;;;3.05;1.85;;;;;;;9.91;64.37;100768.81;10373148;28;96694;-80
2024/01/13 07:06:04;;;;;;;2.72;1.75;;;;;;;9.77;65.49;100728.91;10372364;28;96694;-79
2024/01/13 07:11:14;;;;;;;3.45;1.80;;;;;;;9.40;71.30;100751.88;10371837;28;97273;-82
2024/01/13 07:16:20;;;;;;;2.97;1.90;;;;;;;9.26;72.40;100722.50;10370822;28;97294;-82
2024/01/13 07:21:23;;;;;;;;;;;;;;;9.19;72.48;100719.09;10372808;28;96871;-82
2024/01/13 07:26:29;;;;;;;2.63;1.63;;;;;;;9.18;72.28;100704.28;10372022;28;97294;-82
2024/01/13 07:31:36;;;;;;;2.58;1.50;;;;;;;9.10;72.94;100659.00;10371932;28;97338;-82
2024/01/13 07:36:42;;;;;;;3.25;1.85;;;;;;;9.07;73.15;100631.06;10371077;28;97105;-82
2024/01/13 07:41:50;;;;;;;3.58;1.67;;;;;;;9.22;74.27;100614.03;10371213;28;96923;-81
2024/01/13 07:47:00;;;;;;;4.07;2.28;;;;;;;9.44;71.94;100604.66;10419579;22;98724;-81
2024/01/13 07:52:05;;;;;;;3.08;1.85;;;;;;;9.55;71.79;100609.59;10413593;28;96800;-81
2024/01/13 07:57:12;;;;;;;3.13;1.95;;;;;;;9.62;70.94;100642.66;10412578;28;97181;-80
2024/01/13 08:02:17;;;;;;;3.92;1.80;;;;;;;9.51;70.32;100606.19;10378605;28;96726;-80
2024/01/13 08:07:23;;;;;;;2.80;1.90;;;;;;;9.48;70.70;100587.91;10369574;28;96670;-80
2024/01/13 08:12:28;;;;;;;3.58;1.80;;;;;;;9.56;69.95;100648.06;10370695;28;96639;-80
2024/01/13 08:17:32;;;;;;;5.47;2.40;;;;;;;9.54;70.37;100613.97;10370334;28;96968;-79
2024/01/13 08:22:35;;;;;;;3.53;1.73;;;;;;;9.47;69.39;100603.69;10369554;28;96740;-79
2024/01/13 08:27:40;;;;;;;6.40;1.90;;;;;;;9.47;68.85;100641.31;10370637;28;97186;-80
2024/01/13 08:32:43;;;;;;;2.70;1.48;;;;;;;9.47;68.03;100643.94;10370013;28;96761;-80
2024/01/13 08:37:51;;;;;;;3.72;2.10;;;;;;;9.51;69.08;100629.84;10370147;28;96601;-80
2024/01/13 08:42:56;;;;;;;3.28;1.70;;;;;;;9.63;68.29;100615.47;10370493;28;96773;-79
2024/01/13 08:48:00;;;;;;;4.85;2.35;;;;;;;9.65;68.30;100645.19;10369614;28;96572;-80
2024/01/13 08:53:05;;;;;;;2.58;1.83;;;;;;;9.63;67.73;100649.63;10369413;28;97547;-79
2024/01/13 08:58:10;;;;;;;2.35;1.55;;;;;;;9.65;67.30;100663.56;10370502;28;96647;-79
2024/01/13 09:03:13;;;;;;;4.78;2.05;;;;;;;9.74;67.78;100684.34;10377375;28;97415;-79
2024/01/13 09:08:17;;;;;;;2.90;1.88;;;;;;;9.92;67.68;100736.34;10376107;28;96696;-79
2024/01/13 09:13:22;;;;;;;3.28;2.10;;;;;;;9.96;66.42;100777.41;10376121;28;96725;-80
2024/01/13 09:18:28;;;;;;;3.22;1.85;;;;;;;9.93;67.01;100754.72;10375708;28;97246;-79
2024/01/13 09:23:32;;;;;;;3.25;2.25;;;;;;;9.97;66.53;100751.09;10375272;28;97058;-80
2024/01/13 09:28:37;;;;;;;4.43;2.42;;;;;;;10.04;66.43;100755.25;10375358;28;97521;-79
2024/01/13 09:33:41;;;;;;;3.80;2.10;;;;;;;10.21;66.20;100773.19;10376771;28;97041;-79
2024/01/13 09:38:44;;;;;;;4.03;1.80;;;;;;;10.28;65.45;100804.50;10375522;28;96593;-80
2024/01/13 09:43:57;;;;;;;5.72;1.92;;;;;;;10.18;66.34;100792.53;10374492;28;97041;-79
2024/01/13 09:49:07;;;;;;;3.22;1.67;;;;;;;10.11;66.11;100787.47;10373557;28;96707;-79
2024/01/13 09:54:13;;;;;;;3.95;2.20;;;;;;;10.18;66.61;100789.03;10374866;28;96616;-80
2024/01/13 09:59:19;;;;;;;4.30;2.30;;;;;;;10.24;65.75;100778.34;10374666;28;96779;-79
2024/01/13 10:04:23;;;;;;;3.53;2.00;;;;;;;10.24;65.42;100786.22;10374318;28;96770;-80
2024/01/13 10:09:27;;;;;;;2.72;1.70;;;;;;;10.23;65.96;100797.63;10373626;28;96761;-80
2024/01/13 10:14:40;;;;;;;2.13;1.63;;;;;;;10.36;65.36;100814.78;10373908;28;97214;-79
2024/01/13 10:19:46;;;;;;;5.97;2.30;;;;;;;10.34;65.35;100832.38;10374280;28;96708;-80
2024/01/13 10:24:50;;;;;;;3.88;2.05;;;;;;;9.94;71.08;100852.84;10374973;28;97230;-80
2024/01/13 10:29:55;;;;;;;4.22;2.22;;;;;;;9.60;75.05;100833.63;10373336;28;96825;-83
2024/01/13 10:35:01;;;;;;;5.22;2.30;;;;;;;9.68;75.84;100798.34;10373379;28;96659;-82
2024/01/13 10:40:09;;;;;;;5.47;2.67;;;;;;;9.90;75.34;100819.66;10371836;28;96841;-81
2024/01/13 10:45:18;;;;;;;4.78;2.65;;;;;;;10.02;74.80;100798.28;10372674;28;96962;-81
2024/01/13 10:50:23;;;;;;;4.43;2.40;;;;;;;10.10;74.35;100797.16;10372894;28;96677;-81
2024/01/13 10:55:29;;;;;;;5.15;2.67;;;;;;;10.20;74.22;100787.22;10372863;28;96708;-81
2024/01/13 11:00:35;;;;;;;5.32;2.72;;;;;;;10.44;73.06;100796.16;10372260;28;97091;-81
2024/01/13 11:05:39;;;;;;;5.20;2.50;;;;;;;10.66;72.29;100763.00;10372330;28;97379;-80
2024/01/13 11:10:46;;;;;;;4.18;2.17;;;;;;;10.98;71.83;100761.03;10372131;28;96989;-80
2024/01/13 11:15:59;;;;;;;8.02;2.88;;;;;;;11.20;71.12;100766.47;10373108;28;97143;-80
2024/01/13 11:21:04;;;;;;;6.82;3.08;;;;;;;11.34;71.03;100787.94;10371828;28;96614;-80
2024/01/13 11:26:10;;;;;;;3.28;2.10;;;;;;;11.02;70.39;100783.75;10371787;28;97735;-80
2024/01/13 11:31:33;;;;;;;5.75;3.00;;;;;;;10.82;71.52;100748.41;10370550;28;97580;-80
2024/01/13 11:36:49;;;;;;;5.50;3.10;;;;;;;10.76;72.71;100740.72;10371856;28;96996;-80
2024/01/13 11:41:55;;;;;;;4.90;2.85;;;;;;;10.83;72.93;100727.34;10371184;28;97540;-80
2024/01/13 11:47:04;;;;;;;5.70;3.22;;;;;;;10.79;72.44;100724.84;10370120;28;97051;-80
2024/01/13 11:52:09;;;;;;;5.93;2.90;;;;;;;10.89;72.80;100708.69;10370976;28;96984;-80
2024/01/13 11:57:16;;;;;;;7.40;3.08;;;;;;;11.07;72.48;100694.91;10370847;28;96825;-80
2024/01/13 12:02:23;;;;;;;6.35;3.20;;;;;;;11.26;71.89;100690.75;10370891;28;96937;-80
2024/01/13 12:07:26;;;;;;;6.70;3.75;;;;;;;11.31;72.31;100703.75;10371478;28;96787;-80
2024/01/13 12:12:30;;;;;;;9.75;4.35;;;;;;;11.23;73.35;100687.34;10370497;28;97261;-80
2024/01/13 12:17:34;;;;;;;10.80;5.47;;;;;;;11.26;72.98;100703.91;10370404;28;97549;-79
2024/01/13 12:22:38;;;;;;;12.60;6.00;;;;;;;11.18;73.03;100692.78;10369462;28;96787;-80
2024/01/13 12:27:42;;;;;;;12.48;4.95;;;;;;;11.07;74.43;100709.84;10370013;28;96682;-80
2024/01/13 12:32:47;;;;;;;55.08;23.67;;;;;;;10.96;75.51;100712.84;10370777;28;96932;-80
2024/01/13 12:37:51;;;;;;;;;;;;;;;10.77;77.45;100695.94;10377842;28;97406;-81
2024/01/13 12:42:57;;;;;;;20.17;10.10;;;;;;;10.71;78.43;100718.97;10377335;28;97481;-83
2024/01/13 12:48:03;;;;;;;16.58;8.25;;;;;;;10.65;78.72;100735.81;10376479;28;97484;-81
2024/01/13 12:53:06;;;;;;;17.92;9.10;;;;;;;10.57;80.46;100716.78;10376638;28;96692;-80
2024/01/13 12:58:10;;;;;;;8.75;4.85;;;;;;;10.35;82.29;100712.25;10377439;28;96613;-81
2024/01/13 13:03:15;;;;;;;8.40;3.97;;;;;;;10.23;82.41;100708.22;10376441;28;97285;-83
2024/01/13 13:08:18;;;;;;;8.90;4.70;;;;;;;10.20;84.26;100705.69;10376022;28;97312;-81
2024/01/13 13:13:22;;;;;;;10.25;3.90;;;;;;;10.04;83.34;100704.44;10375306;28;96898;-84
2024/01/13 13:18:27;;;;;;;7.82;3.75;;;;;;;10.05;85.00;100691.28;10376094;28;96779;-81
2024/01/13 13:23:30;;;;;;;;;;;;;;;10.07;84.74;100678.91;10376495;28;97286;-82
2024/01/13 13:28:35;;;;;;;10.52;4.53;;;;;;;10.17;84.54;100679.50;10376165;28;97295;-83
2024/01/13 13:33:40;;;;;;;6.60;3.80;;;;;;;10.12;84.38;100679.63;10375708;28;97408;-84
2024/01/13 13:38:44;;;;;;;8.10;4.63;;;;;;;10.02;86.10;100678.19;10370714;28;97443;-84
2024/01/13 13:43:48;;;;;;;7.00;4.03;;;;;;;10.01;86.03;100657.22;10374240;28;96679;-81
2024/01/13 13:48:53;;;;;;;8.52;4.63;;;;;;;10.09;86.30;100668.38;10375596;28;97096;-83
2024/01/13 13:53:56;;;;;;;6.97;4.25;;;;;;;10.13;86.30;100635.78;10375193;28;97441;-83
2024/01/13 13:59:00;;;;;;;9.40;4.57;;;;;;;10.21;86.33;100633.78;10374491;28;97240;-83
2024/01/13 14:04:08;;;;;;;7.53;4.23;;;;;;;10.51;86.16;100622.25;10373605;28;96613;-84
2024/01/13 14:09:14;;;;;;;7.78;4.88;;;;;;;10.46;85.45;100607.53;10374525;28;97305;-82
2024/01/13 14:14:21;;;;;;;5.78;3.85;;;;;;;10.42;85.71;100634.88;10374185;28;97547;-82
2024/01/13 14:19:36;;;;;;;9.13;4.82;;;;;;;10.43;87.02;100613.75;10374251;28;96624;-82
2024/01/13 14:24:41;;;;;;;7.18;4.32;;;;;;;10.56;85.34;100624.75;10373732;28;97960;-81
2024/01/13 14:29:46;;;;;;;7.68;4.40;;;;;;;10.58;85.89;100600.09;10373513;28;97296;-82
2024/01/13 14:34:55;;;;;;;8.77;4.93;;;;;;;10.68;85.76;100625.16;10373954;28;97170;-82
2024/01/13 14:40:19;;;;;;;11.18;5.25;;;;;;;10.71;86.11;100624.22;10374428;28;97371;-83
2024/01/13 14:45:25;;;;;;;7.57;4.65;;;;;;;10.81;85.88;100620.34;10372385;28;96585;-83
2024/01/13 14:50:36;;;;;;;9.05;4.82;;;;;;;10.87;85.76;100635.94;10373239;28;97582;-84
2024/01/13 14:55:43;;;;;;;10.95;5.40;;;;;;;10.91;87.17;100619.97;10371782;28;97399;-83
2024/01/13 15:00:48;;;;;;;10.60;5.15;;;;;;;10.95;86.81;100653.19;10372908;28;96915;-83
2024/01/13 15:05:58;;;;;;;7.47;4.37;;;;;;;10.84;85.94;100654.47;10372209;28;96723;-82
2024/01/13 15:11:04;;;;;;;9.45;4.85;;;;;;;10.89;85.89;100657.78;10372398;28;96794;-82
2024/01/13 15:16:09;;;;;;;9.57;5.20;;;;;;;10.84;86.33;100649.19;10372465;28;96763;-82
2024/01/13 15:21:18;;;;;;;9.05;5.50;;;;;;;10.80;86.79;100652.88;10372217;28;96709;-81
2024/01/13 15:26:26;;;;;;;8.05;4.70;;;;;;;10.82;85.68;100653.66;10371717;28;96587;-81
2024/01/13 15:31:30;;;;;;;9.27;5.15;;;;;;;10.82;85.98;100640.50;10372120;28;97378;-81
2024/01/13 15:36:36;;;;;;;7.20;4.67;;;;;;;10.71;85.96;100627.72;10371774;28;97251;-81
2024/01/13 15:41:41;;;;;;;8.20;4.55;;;;;;;10.65;86.51;100630.53;10371242;28;96716;-80
2024/01/13 15:46:44;;;;;;;8.35;4.78;;;;;;;10.64;85.97;100643.75;10369655;28;96701;-81
2024/01/13 15:51:50;;;;;;;8.88;4.53;;;;;;;10.63;86.60;100629.72;10371496;28;97007;-81
2024/01/13 15:56:55;;;;;;;8.95;5.43;;;;;;;10.69;86.13;100618.16;10371122;28;97181;-81
2024/01/13 16:02:00;;;;;;;9.20;4.78;;;;;;;10.72;86.49;100592.56;10370612;28;97424;-81
2024/01/13 16:07:08;;;;;;;;;;;;;;;10.80;86.15;100600.22;10370363;28;96908;-81
2024/01/13 16:12:13;;;;;;;8.95;5.80;;;;;;;10.84;85.77;100618.47;10371229;28;96755;-81
2024/01/13 16:17:18;;;;;;;9.20;4.80;;;;;;;10.90;85.52;100605.13;10370001;28;96733;-80
2024/01/13 16:22:30;;;;;;;;;;;;;;;10.74;86.43;100588.13;10372182;28;96814;-82
2024/01/13 16:27:36;;;;;;;7.95;4.20;;;;;;;10.61;88.48;100626.28;10370289;28;96914;-81
2024/01/13 16:32:41;;;;;;;6.82;4.13;;;;;;;10.62;88.02;100671.91;10369707;28;96816;-80
2024/01/13 16:37:52;;;;;;;7.10;4.50;;;;;;;10.57;89.87;100674.69;10368268;28;96921;-81
2024/01/13 16:43:00;;;;;;;9.98;4.90;;;;;;;10.52;90.09;100650.31;10369661;28;97267;-82
2024/01/13 16:48:05;;;;;;;9.25;5.38;;;;;;;10.50;91.84;100615.28;10368810;28;96956;-82
2024/01/13 16:53:12;;;;;;;10.25;5.78;;;;;;;10.58;90.65;100657.97;10369739;28;97150;-83
2024/01/13 16:58:16;;;;;;;9.90;4.45;;;;;;;10.58;90.86;100649.22;10369362;28;97788;-83
2024/01/13 17:03:20;;;;;;;8.05;4.68;;;;;;;10.53;91.18;100654.63;10369009;28;96754;-81
2024/01/13 17:08:25;;;;;;;8.18;4.70;;;;;;;10.49;91.66;100653.00;10369006;28;96683;-82
2024/01/13 17:13:29;;;;;;;10.20;5.07;;;;;;;10.55;92.87;100657.22;10369675;28;96762;-81
2024/01/13 17:18:33;;;;;;;8.95;4.95;;;;;;;10.59;92.48;100662.34;10369841;28;97210;-82
2024/01/13 17:23:38;;;;;;;12.87;6.50;;;;;;;10.57;92.92;100651.00;10376002;28;97244;-81
2024/01/13 17:28:41;;;;;;;9.40;5.30;;;;;;;10.51;93.87;100645.94;10374667;28;96783;-81
2024/01/13 17:33:46;;;;;;;7.20;5.05;;;;;;;10.54;93.53;100664.25;10375501;28;96609;-81
2024/01/13 17:38:51;;;;;;;8.60;5.22;;;;;;;10.55;93.33;100675.63;10374807;28;96763;-81
2024/01/13 17:43:58;;;;;;;11.32;5.25;;;;;;;10.50;93.06;100648.63;10375506;28;97170;-82
2024/01/13 17:49:07;;;;;;;6.72;4.43;;;;;;;10.48;93.85;100647.81;10374569;28;97285;-83
2024/01/13 17:54:12;;;;;;;7.32;4.55;;;;;;;10.47;93.66;100635.56;10374750;28;97056;-82
2024/01/13 17:59:20;;;;;;;6.95;4.57;;;;;;;10.47;94.67;100643.47;10374882;28;97287;-84
2024/01/13 18:04:23;;;;;;;6.10;4.13;;;;;;;10.63;94.23;100671.84;10375117;28;96721;-83
2024/01/13 18:09:28;;;;;;;6.47;3.85;;;;;;;10.69;93.95;100674.28;10374371;28;96710;-80
2024/01/13 18:14:31;;;;;;;5.63;3.30;;;;;;;10.64;94.48;100693.75;10374093;28;97008;-81
2024/01/13 18:19:35;;;;;;;6.75;4.10;;;;;;;10.59;94.78;100693.06;10373252;28;97230;-81
2024/01/13 18:24:40;;;;;;;7.20;4.22;;;;;;;10.57;94.50;100701.00;10373655;28;97444;-81
2024/01/13 18:29:44;;;;;;;12.35;4.63;;;;;;;10.51;95.21;100692.41;10373187;28;96750;-81
2024/01/13 18:34:49;;;;;;;7.85;4.20;;;;;;;10.55;95.06;100702.81;10372740;28;97361;-85
2024/01/13 18:39:54;;;;;;;7.05;4.20;;;;;;;10.58;93.96;100693.94;10373325;28;97004;-83
2024/01/13 18:44:57;;;;;;;8.40;4.25;;;;;;;10.50;94.50;100699.47;10372400;28;97133;-83
2024/01/13 18:50:03;;;;;;;8.43;4.65;;;;;;;10.48;95.35;100703.94;10372920;28;97796;-84
2024/01/13 18:55:09;;;;;;;7.13;4.15;;;;;;;10.51;95.40;100695.94;10373594;28;96657;-83
2024/01/13 19:00:15;;;;;;;7.25;4.65;;;;;;;10.55;94.79;100720.38;10372561;28;96812;-82
2024/01/13 19:05:19;;;;;;;7.28;4.13;;;;;;;10.50;95.26;100709.13;10372092;28;97182;-80
2024/01/13 19:10:30;;;;;;;8.20;4.18;;;;;;;10.51;95.52;100732.75;10371448;28;96925;-84
2024/01/13 19:15:34;;;;;;;5.78;3.95;;;;;;;10.43;96.21;100740.03;10371848;28;96876;-83
2024/01/13 19:20:37;;;;;;;5.03;4.07;;;;;;;10.42;96.41;100719.88;10372104;28;97197;-83
2024/01/13 19:25:42;;;;;;;6.30;4.00;;;;;;;10.47;95.49;100719.75;10371650;28;96674;-83
2024/01/13 19:30:46;;;;;;;5.65;3.63;;;;;;;10.51;95.57;100726.63;10371648;28;96668;-82
2024/01/13 19:35:52;;;;;;;5.40;3.60;;;;;;;10.54;95.09;100723.91;10371211;28;96726;-82
2024/01/13 19:40:58;;;;;;;;;;;;;;;10.57;94.78;100724.69;10371735;28;97348;-82
2024/01/13 19:46:02;;;;;;;6.68;4.03;;;;;;;10.52;95.09;100725.75;10370669;28;97387;-83
2024/01/13 19:51:07;;;;;;;5.13;3.47;;;;;;;10.50;95.52;100741.56;10371268;28;97445;-81
2024/01/13 19:56:14;;;;;;;8.05;4.50;;;;;;;10.43;96.16;100728.66;10370668;28;96742;-82
2024/01/13 20:01:19;;;;;;;6.82;4.65;;;;;;;10.38;96.76;100747.22;10369713;28;96804;-81
2024/01/13 20:06:28;;;;;;;4.32;3.20;;;;;;;10.39;97.56;100738.41;10370469;28;96733;-83
2024/01/13 20:11:37;;;;;;;7.18;5.75;;;;;;;10.41;97.01;100730.47;10370435;28;96783;-82
2024/01/13 20:16:41;;;;;;;4.57;3.22;;;;;;;10.34;97.60;100719.28;10410144;22;96857;-82
2024/01/13 20:21:44;;;;;;;6.30;3.90;;;;;;;10.33;97.53;100711.44;10412152;28;96685;-82
2024/01/13 20:26:50;;;;;;;6.38;4.32;;;;;;;10.42;97.91;100712.00;10406946;28;97467;-81
2024/01/13 20:31:58;;;;;;;5.15;3.47;;;;;;;10.54;96.44;100726.56;10369772;28;96832;-82
2024/01/13 20:37:03;;;;;;;4.93;3.05;;;;;;;10.53;96.69;100699.38;10370881;28;96904;-81
2024/01/13 20:42:09;;;;;;;5.13;3.08;;;;;;;10.49;97.53;100689.84;10369828;28;96787;-81
2024/01/13 20:47:15;;;;;;;6.10;4.03;;;;;;;10.53;96.92;100699.38;10369440;28;97161;-81
2024/01/13 20:52:19;;;;;;;5.97;3.35;;;;;;;10.60;95.93;100710.56;10368578;28;96794;-82
2024/01/13 20:57:29;;;;;;;4.72;3.20;;;;;;;10.66;95.90;100705.09;10375809;28;96719;-82
2024/01/13 21:02:34;;;;;;;4.85;3.00;;;;;;;10.59;96.18;100696.56;10376260;28;96721;-81
2024/01/13 21:07:37;;;;;;;6.47;3.15;;;;;;;10.62;96.67;100692.94;10376860;28;97032;-80
2024/01/13 21:12:42;;;;;;;4.13;2.53;;;;;;;10.67;96.70;100710.31;10376407;28;96789;-80
2024/01/13 21:17:46;;;;;;;3.47;2.65;;;;;;;10.64;95.49;100696.41;10375567;28;96830;-81
2024/01/13 21:22:49;;;;;;;4.50;2.40;;;;;;;10.61;96.83;100702.59;10376493;28;97811;-81
2024/01/13 21:27:54;;;;;;;3.22;2.30;;;;;;;10.64;96.70;100706.91;10376187;28;96755;-81
2024/01/13 21:33:05;;;;;;;2.78;2.13;;;;;;;10.61;96.24;100702.59;10375751;28;96734;-81
2024/01/13 21:38:09;;;;;;;3.08;2.15;;;;;;;10.66;96.58;100694.56;10375104;28;96983;-81
2024/01/13 21:43:14;;;;;;;3.97;2.40;;;;;;;10.64;96.61;100685.88;10374322;28;96728;-83
2024/01/13 21:48:19;;;;;;;4.95;2.78;;;;;;;10.66;96.16;100682.25;10374536;28;96664;-81
2024/01/13 21:53:24;;;;;;;3.38;2.00;;;;;;;10.70;95.75;100689.16;10374655;28;96818;-80
2024/01/13 21:58:28;;;;;;;4.07;2.50;;;;;;;10.66;96.23;100692.78;10374861;28;96660;-82
2024/01/13 22:03:32;;;;;;;3.38;2.03;;;;;;;10.73;95.49;100680.31;10374771;28;96647;-82
2024/01/13 22:08:36;;;;;;;3.08;2.20;;;;;;;10.75;95.33;100686.38;10372940;28;97368;-80
2024/01/13 22:13:41;;;;;;;4.40;2.10;;;;;;;10.74;94.73;100679.38;10374275;28;97322;-80
2024/01/13 22:18:45;;;;;;;3.10;2.05;;;;;;;10.83;94.31;100682.56;10374638;28;96782;-80
2024/01/13 22:23:49;;;;;;;3.42;1.90;;;;;;;10.76;94.59;100685.47;10374393;28;96894;-79
2024/01/13 22:28:54;;;;;;;3.35;2.30;;;;;;;10.78;94.63;100681.00;10373725;28;96993;-80
2024/01/13 22:33:59;;;;;;;2.90;2.05;;;;;;;10.76;94.34;100665.28;10372612;28;97514;-80
2024/01/13 22:39:02;;;;;;;2.60;2.07;;;;;;;10.78;94.65;100667.84;10374272;28;98505;-80
2024/01/13 22:44:07;;;;;;;4.18;2.50;;;;;;;10.76;94.84;100664.41;10373001;28;97131;-80
2024/01/13 22:49:10;;;;;;;4.53;2.92;;;;;;;10.80;93.89;100658.97;10372819;28;96650;-80
2024/01/13 22:54:15;;;;;;;2.88;2.13;;;;;;;10.82;94.36;100656.28;10372975;28;96613;-80
2024/01/13 22:59:20;;;;;;;3.33;2.47;;;;;;;10.81;93.37;100654.56;10372803;28;97396;-79
2024/01/13 23:04:23;;;;;;;2.05;1.50;;;;;;;10.84;93.71;100652.69;10331354;28;97302;-79
2024/01/13 23:09:27;;;;;;;2.78;2.17;;;;;;;10.81;93.35;100660.72;10360210;28;96669;-80
2024/01/13 23:14:33;;;;;;;3.70;2.03;;;;;;;10.80;93.98;100666.03;10371939;28;97104;-80
2024/01/13 23:19:36;;;;;;;3.35;2.58;;;;;;;10.79;93.39;100657.25;10371550;28;96819;-79
2024/01/13 23:24:40;;;;;;;3.88;2.10;;;;;;;10.82;93.37;100646.63;10370636;28;97404;-79
2024/01/13 23:29:46;;;;;;;4.20;2.83;;;;;;;10.76;93.72;100644.22;10371861;28;97751;-81
2024/01/13 23:34:53;;;;;;;6.22;2.60;;;;;;;10.74;93.97;100667.09;10371799;28;97011;-81